sensor_id;sensor_type;location;lat;lon;timestamp;pressure;altitude;pressure_sealevel;temperature;humidity
70011;BME280;59543;37.950;-122.338;2023-02-22T00:00:11;100589.31;;;11.27;47.58
70011;BME280;59543;37.950;-122.338;2023-02-22T00:02:46;100579.97;;;11.13;46.44
70011;BME280;59543;37.950;-122.338;2023-02-22T00:05:13;100574.28;;;11.16;47.53
70011;BME280;59543;37.950;-122.338;2023-02-22T00:07:41;100572.25;;;11.18;47.74
70011;BME280;59543;37.950;-122.338;2023-02-22T00:10:09;100577.84;;;11.25;47.94
70011;BME280;59543;37.950;-122.338;2023-02-22T00:12:40;100591.59;;;11.14;48.05
70011;BME280;59543;37.950;-122.338;2023-02-22T00:15:07;100591.44;;;10.97;47.70
70011;BME280;59543;37.950;-122.338;2023-02-22T00:17:33;100582.91;;;10.84;48.89
70011;BME280;59543;37.950;-122.338;2023-02-22T00:19:59;100598.66;;;10.61;48.98
70011;BME280;59543;37.950;-122.338;2023-02-22T00:22:25;100596.16;;;10.60;49.26
70011;BME280;59543;37.950;-122.338;2023-02-22T00:24:51;100582.16;;;10.56;49.85
70011;BME280;59543;37.950;-122.338;2023-02-22T00:27:17;100576.22;;;10.52;49.61
70011;BME280;59543;37.950;-122.338;2023-02-22T00:29:43;100577.91;;;10.36;49.83
70011;BME280;59543;37.950;-122.338;2023-02-22T00:32:09;100579.06;;;10.33;49.64
70011;BME280;59543;37.950;-122.338;2023-02-22T00:34:35;100572.84;;;10.33;49.58
70011;BME280;59543;37.950;-122.338;2023-02-22T00:37:01;100572.53;;;10.36;49.02
70011;BME280;59543;37.950;-122.338;2023-02-22T00:39:28;100563.22;;;10.30;48.72
70011;BME280;59543;37.950;-122.338;2023-02-22T00:41:55;100568.75;;;10.28;48.89
70011;BME280;59543;37.950;-122.338;2023-02-22T00:44:21;100561.56;;;10.19;48.43
70011;BME280;59543;37.950;-122.338;2023-02-22T00:46:47;100558.78;;;10.11;47.85
70011;BME280;59543;37.950;-122.338;2023-02-22T00:49:16;100564.47;;;10.08;47.27
70011;BME280;59543;37.950;-122.338;2023-02-22T00:51:42;100559.69;;;10.02;47.82
70011;BME280;59543;37.950;-122.338;2023-02-22T00:54:08;100562.28;;;9.94;47.32
70011;BME280;59543;37.950;-122.338;2023-02-22T00:56:35;100560.91;;;9.80;47.83
70011;BME280;59543;37.950;-122.338;2023-02-22T00:59:02;100571.13;;;9.76;48.83
70011;BME280;59543;37.950;-122.338;2023-02-22T01:01:28;100571.72;;;9.70;47.61
70011;BME280;59543;37.950;-122.338;2023-02-22T01:03:54;100571.56;;;9.72;48.06
70011;BME280;59543;37.950;-122.338;2023-02-22T01:06:20;100559.16;;;9.61;47.94
70011;BME280;59543;37.950;-122.338;2023-02-22T01:08:47;100569.63;;;9.64;47.32
70011;BME280;59543;37.950;-122.338;2023-02-22T01:11:16;100561.44;;;9.56;47.56
70011;BME280;59543;37.950;-122.338;2023-02-22T01:13:42;100566.09;;;9.64;47.31
70011;BME280;59543;37.950;-122.338;2023-02-22T01:16:11;100572.22;;;9.46;48.04
70011;BME280;59543;37.950;-122.338;2023-02-22T01:18:37;100575.06;;;9.45;47.68
70011;BME280;59543;37.950;-122.338;2023-02-22T01:21:03;100580.16;;;9.38;48.18
70011;BME280;59543;37.950;-122.338;2023-02-22T01:23:29;100592.31;;;9.32;47.78
70011;BME280;59543;37.950;-122.338;2023-02-22T01:25:55;100595.56;;;9.26;48.44
70011;BME280;59543;37.950;-122.338;2023-02-22T01:28:21;100595.75;;;9.15;49.30
70011;BME280;59543;37.950;-122.338;2023-02-22T01:30:47;100612.25;;;9.10;49.23
70011;BME280;59543;37.950;-122.338;2023-02-22T01:33:14;100628.38;;;9.01;50.25
70011;BME280;59543;37.950;-122.338;2023-02-22T01:35:40;100623.56;;;9.04;50.98
70011;BME280;59543;37.950;-122.338;2023-02-22T01:38:07;100617.06;;;8.87;50.41
70011;BME280;59543;37.950;-122.338;2023-02-22T01:40:35;100625.00;;;8.79;50.76
70011;BME280;59543;37.950;-122.338;2023-02-22T01:43:05;100615.81;;;8.82;50.73
70011;BME280;59543;37.950;-122.338;2023-02-22T01:45:42;100599.41;;;8.75;52.16
70011;BME280;59543;37.950;-122.338;2023-02-22T01:48:22;100596.03;;;8.63;52.65
70011;BME280;59543;37.950;-122.338;2023-02-22T01:51:03;100598.41;;;8.57;52.53
70011;BME280;59543;37.950;-122.338;2023-02-22T01:56:16;100613.66;;;8.46;52.66
70011;BME280;59543;37.950;-122.338;2023-02-22T01:58:45;100623.81;;;8.53;52.15
70011;BME280;59543;37.950;-122.338;2023-02-22T02:01:11;100630.66;;;8.36;52.98
70011;BME280;59543;37.950;-122.338;2023-02-22T02:03:38;100616.28;;;8.37;52.32
70011;BME280;59543;37.950;-122.338;2023-02-22T02:06:06;100603.00;;;8.25;51.40
70011;BME280;59543;37.950;-122.338;2023-02-22T02:11:14;100600.03;;;8.19;50.76
70011;BME280;59543;37.950;-122.338;2023-02-22T02:13:40;100605.13;;;8.22;51.27
70011;BME280;59543;37.950;-122.338;2023-02-22T02:16:06;100599.75;;;8.12;51.05
70011;BME280;59543;37.950;-122.338;2023-02-22T02:18:32;100594.53;;;8.20;50.68
70011;BME280;59543;37.950;-122.338;2023-02-22T02:23:54;100619.44;;;8.11;50.22
70011;BME280;59543;37.950;-122.338;2023-02-22T02:39:54;100654.78;;;7.95;50.68
70011;BME280;59543;37.950;-122.338;2023-02-22T02:42:23;100651.66;;;7.90;51.67
70011;BME280;59543;37.950;-122.338;2023-02-22T02:45:01;100649.69;;;7.92;51.40
70011;BME280;59543;37.950;-122.338;2023-02-22T02:47:30;100653.00;;;7.75;51.60
70011;BME280;59543;37.950;-122.338;2023-02-22T02:50:05;100645.81;;;7.75;51.64
70011;BME280;59543;37.950;-122.338;2023-02-22T02:52:33;100640.44;;;7.75;51.94
70011;BME280;59543;37.950;-122.338;2023-02-22T02:55:01;100637.78;;;7.75;51.99
70011;BME280;59543;37.950;-122.338;2023-02-22T02:57:29;100644.91;;;7.65;51.70
70011;BME280;59543;37.950;-122.338;2023-02-22T02:59:55;100647.03;;;7.62;51.67
70011;BME280;59543;37.950;-122.338;2023-02-22T03:08:29;100645.19;;;7.62;52.51
70011;BME280;59543;37.950;-122.338;2023-02-22T03:15:57;100658.16;;;7.46;52.99
70011;BME280;59543;37.950;-122.338;2023-02-22T03:18:28;100652.22;;;7.42;54.33
70011;BME280;59543;37.950;-122.338;2023-02-22T03:21:07;100660.09;;;7.34;53.95
70011;BME280;59543;37.950;-122.338;2023-02-22T03:23:40;100674.94;;;7.27;53.87
70011;BME280;59543;37.950;-122.338;2023-02-22T03:26:10;100661.72;;;7.25;54.46
70011;BME280;59543;37.950;-122.338;2023-02-22T03:28:37;100674.47;;;7.22;54.48
70011;BME280;59543;37.950;-122.338;2023-02-22T03:33:44;100659.09;;;7.14;55.40
70011;BME280;59543;37.950;-122.338;2023-02-22T03:36:13;100655.56;;;7.14;55.59
70011;BME280;59543;37.950;-122.338;2023-02-22T03:38:40;100648.66;;;7.11;55.46
70011;BME280;59543;37.950;-122.338;2023-02-22T03:41:07;100657.56;;;7.00;55.18
70011;BME280;59543;37.950;-122.338;2023-02-22T03:43:38;100661.69;;;7.04;54.48
70011;BME280;59543;37.950;-122.338;2023-02-22T03:46:06;100659.63;;;6.97;55.64
70011;BME280;59543;37.950;-122.338;2023-02-22T03:51:18;100657.44;;;7.02;55.28
70011;BME280;59543;37.950;-122.338;2023-02-22T03:53:45;100645.28;;;6.98;55.48
70011;BME280;59543;37.950;-122.338;2023-02-22T03:56:19;100633.03;;;6.95;54.29
70011;BME280;59543;37.950;-122.338;2023-02-22T03:58:47;100636.16;;;7.00;54.77
70011;BME280;59543;37.950;-122.338;2023-02-22T04:01:14;100640.66;;;7.00;54.85
70011;BME280;59543;37.950;-122.338;2023-02-22T04:03:40;100640.00;;;6.86;54.69
70011;BME280;59543;37.950;-122.338;2023-02-22T04:06:06;100653.97;;;6.90;54.67
70011;BME280;59543;37.950;-122.338;2023-02-22T04:08:32;100657.63;;;6.89;54.82
70011;BME280;59543;37.950;-122.338;2023-02-22T04:10:59;100664.50;;;6.92;54.89
70011;BME280;59543;37.950;-122.338;2023-02-22T04:13:26;100669.28;;;6.88;55.09
70011;BME280;59543;37.950;-122.338;2023-02-22T04:15:52;100656.81;;;6.77;55.01
70011;BME280;59543;37.950;-122.338;2023-02-22T04:18:18;100648.53;;;6.80;55.56
70011;BME280;59543;37.950;-122.338;2023-02-22T04:20:43;100653.88;;;6.80;55.65
70011;BME280;59543;37.950;-122.338;2023-02-22T04:23:09;100655.94;;;6.77;55.42
70011;BME280;59543;37.950;-122.338;2023-02-22T04:25:35;100673.09;;;6.74;55.59
70011;BME280;59543;37.950;-122.338;2023-02-22T04:28:01;100665.53;;;6.79;55.99
70011;BME280;59543;37.950;-122.338;2023-02-22T04:30:27;100667.88;;;6.73;55.56
70011;BME280;59543;37.950;-122.338;2023-02-22T04:32:54;100674.13;;;6.62;56.31
70011;BME280;59543;37.950;-122.338;2023-02-22T04:35:20;100672.97;;;6.64;56.27
70011;BME280;59543;37.950;-122.338;2023-02-22T04:37:46;100685.91;;;6.59;56.38
70011;BME280;59543;37.950;-122.338;2023-02-22T04:40:12;100689.16;;;6.63;56.12
70011;BME280;59543;37.950;-122.338;2023-02-22T04:42:38;100704.47;;;6.50;56.93
70011;BME280;59543;37.950;-122.338;2023-02-22T04:45:05;100697.34;;;6.50;56.79
70011;BME280;59543;37.950;-122.338;2023-02-22T04:47:32;100689.56;;;6.47;57.71
70011;BME280;59543;37.950;-122.338;2023-02-22T04:49:58;100679.22;;;6.43;57.79
70011;BME280;59543;37.950;-122.338;2023-02-22T04:52:25;100677.19;;;6.35;57.68
70011;BME280;59543;37.950;-122.338;2023-02-22T04:54:51;100668.19;;;6.36;58.03
70011;BME280;59543;37.950;-122.338;2023-02-22T04:57:16;100670.03;;;6.35;57.44
70011;BME280;59543;37.950;-122.338;2023-02-22T04:59:42;100671.38;;;6.30;57.62
70011;BME280;59543;37.950;-122.338;2023-02-22T05:02:08;100680.72;;;6.24;57.52
70011;BME280;59543;37.950;-122.338;2023-02-22T05:04:36;100673.91;;;6.31;57.64
70011;BME280;59543;37.950;-122.338;2023-02-22T05:07:02;100665.03;;;6.19;58.60
70011;BME280;59543;37.950;-122.338;2023-02-22T05:09:28;100677.06;;;6.25;58.66
70011;BME280;59543;37.950;-122.338;2023-02-22T05:11:54;100672.09;;;6.21;58.71
70011;BME280;59543;37.950;-122.338;2023-02-22T05:14:19;100669.31;;;6.11;58.67
70011;BME280;59543;37.950;-122.338;2023-02-22T05:16:47;100679.63;;;6.15;59.28
70011;BME280;59543;37.950;-122.338;2023-02-22T05:19:13;100679.88;;;6.12;59.38
70011;BME280;59543;37.950;-122.338;2023-02-22T05:21:38;100672.59;;;6.03;58.79
70011;BME280;59543;37.950;-122.338;2023-02-22T05:24:04;100694.56;;;6.07;59.17
70011;BME280;59543;37.950;-122.338;2023-02-22T05:26:30;100672.47;;;6.05;58.50
70011;BME280;59543;37.950;-122.338;2023-02-22T05:28:56;100672.34;;;6.06;58.84
70011;BME280;59543;37.950;-122.338;2023-02-22T05:31:22;100660.31;;;6.12;59.04
70011;BME280;59543;37.950;-122.338;2023-02-22T05:33:48;100665.06;;;6.08;58.92
70011;BME280;59543;37.950;-122.338;2023-02-22T05:36:14;100647.81;;;6.01;58.31
70011;BME280;59543;37.950;-122.338;2023-02-22T05:38:41;100664.81;;;6.00;58.74
70011;BME280;59543;37.950;-122.338;2023-02-22T05:41:11;100664.22;;;6.08;57.54
70011;BME280;59543;37.950;-122.338;2023-02-22T05:43:38;100651.47;;;6.11;57.23
70011;BME280;59543;37.950;-122.338;2023-02-22T05:46:04;100660.22;;;6.02;58.00
70011;BME280;59543;37.950;-122.338;2023-02-22T05:48:30;100648.81;;;6.00;58.06
70011;BME280;59543;37.950;-122.338;2023-02-22T05:50:56;100656.56;;;6.03;57.78
70011;BME280;59543;37.950;-122.338;2023-02-22T05:53:22;100641.63;;;6.01;57.79
70011;BME280;59543;37.950;-122.338;2023-02-22T05:55:48;100637.97;;;6.02;57.46
70011;BME280;59543;37.950;-122.338;2023-02-22T05:58:14;100651.22;;;6.03;57.83
70011;BME280;59543;37.950;-122.338;2023-02-22T06:00:40;100646.97;;;6.01;57.65
70011;BME280;59543;37.950;-122.338;2023-02-22T06:03:07;100650.13;;;5.94;57.53
70011;BME280;59543;37.950;-122.338;2023-02-22T06:05:33;100643.56;;;5.99;57.94
70011;BME280;59543;37.950;-122.338;2023-02-22T06:07:59;100646.72;;;6.04;58.37
70011;BME280;59543;37.950;-122.338;2023-02-22T06:10:25;100648.44;;;6.05;57.72
70011;BME280;59543;37.950;-122.338;2023-02-22T06:12:51;100646.13;;;6.00;57.94
70011;BME280;59543;37.950;-122.338;2023-02-22T06:15:18;100656.56;;;6.03;58.05
70011;BME280;59543;37.950;-122.338;2023-02-22T06:17:44;100658.75;;;5.98;57.20
70011;BME280;59543;37.950;-122.338;2023-02-22T06:20:11;100637.53;;;5.97;57.04
70011;BME280;59543;37.950;-122.338;2023-02-22T06:22:38;100635.44;;;6.00;57.32
70011;BME280;59543;37.950;-122.338;2023-02-22T06:25:05;100642.03;;;5.96;57.54
70011;BME280;59543;37.950;-122.338;2023-02-22T06:27:32;100627.31;;;6.02;57.26
70011;BME280;59543;37.950;-122.338;2023-02-22T06:29:59;100622.84;;;6.02;57.13
70011;BME280;59543;37.950;-122.338;2023-02-22T06:32:25;100622.69;;;6.04;57.32
70011;BME280;59543;37.950;-122.338;2023-02-22T06:34:50;100607.78;;;5.90;57.15
70011;BME280;59543;37.950;-122.338;2023-02-22T06:37:16;100606.28;;;5.86;56.89
70011;BME280;59543;37.950;-122.338;2023-02-22T06:39:42;100610.78;;;5.85;57.22
70011;BME280;59543;37.950;-122.338;2023-02-22T06:42:08;100604.38;;;5.88;56.63
70011;BME280;59543;37.950;-122.338;2023-02-22T06:44:34;100602.69;;;5.87;57.34
70011;BME280;59543;37.950;-122.338;2023-02-22T06:47:00;100610.94;;;5.95;56.59
70011;BME280;59543;37.950;-122.338;2023-02-22T06:49:26;100611.06;;;5.93;56.31
70011;BME280;59543;37.950;-122.338;2023-02-22T06:51:52;100614.78;;;5.91;56.11
70011;BME280;59543;37.950;-122.338;2023-02-22T06:54:18;100612.50;;;5.98;55.76
70011;BME280;59543;37.950;-122.338;2023-02-22T06:56:44;100620.53;;;5.98;56.03
70011;BME280;59543;37.950;-122.338;2023-02-22T06:59:10;100613.09;;;5.90;55.83
70011;BME280;59543;37.950;-122.338;2023-02-22T07:01:36;100619.41;;;5.89;56.65
70011;BME280;59543;37.950;-122.338;2023-02-22T07:04:02;100605.81;;;5.92;56.18
70011;BME280;59543;37.950;-122.338;2023-02-22T07:06:28;100616.72;;;5.89;55.62
70011;BME280;59543;37.950;-122.338;2023-02-22T07:08:54;100610.69;;;5.87;55.80
70011;BME280;59543;37.950;-122.338;2023-02-22T07:11:20;100622.06;;;5.89;56.13
70011;BME280;59543;37.950;-122.338;2023-02-22T07:13:45;100626.09;;;5.94;55.79
70011;BME280;59543;37.950;-122.338;2023-02-22T07:16:11;100624.41;;;5.93;55.79
70011;BME280;59543;37.950;-122.338;2023-02-22T07:18:37;100615.03;;;5.88;55.52
70011;BME280;59543;37.950;-122.338;2023-02-22T07:21:03;100621.38;;;5.98;55.39
70011;BME280;59543;37.950;-122.338;2023-02-22T07:23:29;100624.88;;;5.87;56.32
70011;BME280;59543;37.950;-122.338;2023-02-22T07:25:55;100621.72;;;5.82;56.04
70011;BME280;59543;37.950;-122.338;2023-02-22T07:28:24;100620.13;;;5.91;55.00
70011;BME280;59543;37.950;-122.338;2023-02-22T07:30:49;100628.25;;;5.89;55.00
70011;BME280;59543;37.950;-122.338;2023-02-22T07:33:15;100621.75;;;5.93;55.93
70011;BME280;59543;37.950;-122.338;2023-02-22T07:35:45;100619.41;;;5.89;56.39
70011;BME280;59543;37.950;-122.338;2023-02-22T07:38:12;100612.91;;;5.93;54.37
70011;BME280;59543;37.950;-122.338;2023-02-22T07:40:38;100605.44;;;5.85;54.39
70011;BME280;59543;37.950;-122.338;2023-02-22T07:43:09;100611.63;;;5.74;55.80
70011;BME280;59543;37.950;-122.338;2023-02-22T07:45:38;100606.28;;;5.74;55.23
70011;BME280;59543;37.950;-122.338;2023-02-22T07:48:05;100606.19;;;5.76;54.65
70011;BME280;59543;37.950;-122.338;2023-02-22T07:50:31;100594.78;;;5.74;54.58
70011;BME280;59543;37.950;-122.338;2023-02-22T07:53:00;100591.50;;;5.70;55.18
70011;BME280;59543;37.950;-122.338;2023-02-22T07:55:27;100587.16;;;5.69;55.66
70011;BME280;59543;37.950;-122.338;2023-02-22T07:57:55;100598.16;;;5.65;55.78
70011;BME280;59543;37.950;-122.338;2023-02-22T08:00:22;100597.81;;;5.69;54.35
70011;BME280;59543;37.950;-122.338;2023-02-22T08:02:48;100595.75;;;5.73;53.68
70011;BME280;59543;37.950;-122.338;2023-02-22T08:05:15;100596.25;;;5.78;54.76
70011;BME280;59543;37.950;-122.338;2023-02-22T08:07:41;100595.16;;;5.69;54.82
70011;BME280;59543;37.950;-122.338;2023-02-22T08:10:08;100582.16;;;5.65;54.72
70011;BME280;59543;37.950;-122.338;2023-02-22T08:12:34;100591.00;;;5.65;55.15
70011;BME280;59543;37.950;-122.338;2023-02-22T08:15:01;100589.06;;;5.56;55.87
70011;BME280;59543;37.950;-122.338;2023-02-22T08:17:27;100588.56;;;5.62;55.12
70011;BME280;59543;37.950;-122.338;2023-02-22T08:19:52;100581.56;;;5.61;55.58
70011;BME280;59543;37.950;-122.338;2023-02-22T08:22:18;100593.44;;;5.57;55.48
70011;BME280;59543;37.950;-122.338;2023-02-22T08:24:44;100587.97;;;5.47;56.58
70011;BME280;59543;37.950;-122.338;2023-02-22T08:27:10;100594.28;;;5.58;55.42
70011;BME280;59543;37.950;-122.338;2023-02-22T08:29:36;100589.47;;;5.63;55.43
70011;BME280;59543;37.950;-122.338;2023-02-22T08:32:02;100583.88;;;5.55;55.94
70011;BME280;59543;37.950;-122.338;2023-02-22T08:34:28;100573.28;;;5.53;54.97
70011;BME280;59543;37.950;-122.338;2023-02-22T08:36:54;100575.63;;;5.58;55.22
70011;BME280;59543;37.950;-122.338;2023-02-22T08:39:20;100571.72;;;5.62;54.55
70011;BME280;59543;37.950;-122.338;2023-02-22T08:41:46;100585.91;;;5.62;54.20
70011;BME280;59543;37.950;-122.338;2023-02-22T08:44:12;100588.34;;;5.65;54.99
70011;BME280;59543;37.950;-122.338;2023-02-22T08:46:38;100580.09;;;5.57;54.55
70011;BME280;59543;37.950;-122.338;2023-02-22T08:49:04;100591.97;;;5.53;54.72
70011;BME280;59543;37.950;-122.338;2023-02-22T08:51:35;100595.13;;;5.47;55.43
70011;BME280;59543;37.950;-122.338;2023-02-22T08:54:01;100586.00;;;5.38;56.29
70011;BME280;59543;37.950;-122.338;2023-02-22T08:56:28;100585.44;;;5.46;56.10
70011;BME280;59543;37.950;-122.338;2023-02-22T08:58:54;100589.19;;;5.55;56.25
70011;BME280;59543;37.950;-122.338;2023-02-22T09:01:22;100601.09;;;5.50;57.02
70011;BME280;59543;37.950;-122.338;2023-02-22T09:03:49;100597.66;;;5.37;56.94
70011;BME280;59543;37.950;-122.338;2023-02-22T09:06:15;100595.13;;;5.47;57.20
70011;BME280;59543;37.950;-122.338;2023-02-22T09:08:41;100584.09;;;5.40;57.88
70011;BME280;59543;37.950;-122.338;2023-02-22T09:11:07;100593.78;;;5.30;57.82
70011;BME280;59543;37.950;-122.338;2023-02-22T09:13:33;100595.97;;;5.36;57.06
70011;BME280;59543;37.950;-122.338;2023-02-22T09:15:59;100596.22;;;5.33;57.18
70011;BME280;59543;37.950;-122.338;2023-02-22T09:18:26;100604.22;;;5.33;58.24
70011;BME280;59543;37.950;-122.338;2023-02-22T09:20:52;100595.59;;;5.41;57.53
70011;BME280;59543;37.950;-122.338;2023-02-22T09:23:18;100606.50;;;5.38;57.91
70011;BME280;59543;37.950;-122.338;2023-02-22T09:25:46;100603.38;;;5.33;57.32
70011;BME280;59543;37.950;-122.338;2023-02-22T09:28:12;100597.28;;;5.31;57.81
70011;BME280;59543;37.950;-122.338;2023-02-22T09:30:37;100604.31;;;5.32;57.70
70011;BME280;59543;37.950;-122.338;2023-02-22T09:33:07;100599.47;;;5.25;57.70
70011;BME280;59543;37.950;-122.338;2023-02-22T09:35:37;100596.94;;;5.24;57.06
70011;BME280;59543;37.950;-122.338;2023-02-22T09:38:06;100589.16;;;5.32;57.64
70011;BME280;59543;37.950;-122.338;2023-02-22T09:40:33;100595.94;;;5.25;57.10
70011;BME280;59543;37.950;-122.338;2023-02-22T09:45:43;100603.59;;;5.30;56.62
70011;BME280;59543;37.950;-122.338;2023-02-22T09:48:13;100595.47;;;5.31;56.67
70011;BME280;59543;37.950;-122.338;2023-02-22T09:50:41;100599.47;;;5.25;57.48
70011;BME280;59543;37.950;-122.338;2023-02-22T09:53:22;100602.88;;;5.27;56.40
70011;BME280;59543;37.950;-122.338;2023-02-22T09:55:55;100605.53;;;5.27;56.84
70011;BME280;59543;37.950;-122.338;2023-02-22T09:58:32;100605.66;;;5.37;56.54
70011;BME280;59543;37.950;-122.338;2023-02-22T10:01:07;100598.50;;;5.26;57.08
70011;BME280;59543;37.950;-122.338;2023-02-22T10:06:36;100604.94;;;5.46;56.13
70011;BME280;59543;37.950;-122.338;2023-02-22T10:09:04;100611.84;;;5.38;56.12
70011;BME280;59543;37.950;-122.338;2023-02-22T10:14:05;100599.28;;;5.51;54.97
70011;BME280;59543;37.950;-122.338;2023-02-22T10:27:20;100585.44;;;5.46;54.91
70011;BME280;59543;37.950;-122.338;2023-02-22T10:29:48;100578.78;;;5.52;55.20
70011;BME280;59543;37.950;-122.338;2023-02-22T10:32:18;100582.53;;;5.49;55.62
70011;BME280;59543;37.950;-122.338;2023-02-22T10:34:46;100578.41;;;5.45;56.09
70011;BME280;59543;37.950;-122.338;2023-02-22T10:37:25;100567.00;;;5.43;55.83
70011;BME280;59543;37.950;-122.338;2023-02-22T10:40:10;100575.00;;;5.43;56.57
70011;BME280;59543;37.950;-122.338;2023-02-22T10:42:36;100566.75;;;5.46;56.12
70011;BME280;59543;37.950;-122.338;2023-02-22T10:45:02;100554.16;;;5.37;55.91
70011;BME280;59543;37.950;-122.338;2023-02-22T10:47:28;100554.63;;;5.31;56.06
70011;BME280;59543;37.950;-122.338;2023-02-22T10:49:55;100552.31;;;5.15;57.07
70011;BME280;59543;37.950;-122.338;2023-02-22T10:52:26;100555.34;;;5.21;57.52
70011;BME280;59543;37.950;-122.338;2023-02-22T10:54:53;100551.97;;;5.31;56.67
70011;BME280;59543;37.950;-122.338;2023-02-22T10:57:20;100544.91;;;5.18;57.40
70011;BME280;59543;37.950;-122.338;2023-02-22T10:59:47;100550.28;;;5.30;57.64
70011;BME280;59543;37.950;-122.338;2023-02-22T11:04:49;100534.59;;;5.25;56.61
70011;BME280;59543;37.950;-122.338;2023-02-22T11:07:27;100524.78;;;5.25;56.96
70011;BME280;59543;37.950;-122.338;2023-02-22T11:09:57;100524.19;;;5.33;57.10
70011;BME280;59543;37.950;-122.338;2023-02-22T11:12:33;100519.94;;;5.31;56.48
70011;BME280;59543;37.950;-122.338;2023-02-22T11:17:39;100530.75;;;5.18;58.22
70011;BME280;59543;37.950;-122.338;2023-02-22T11:20:05;100522.13;;;5.37;57.54
70011;BME280;59543;37.950;-122.338;2023-02-22T11:22:41;100534.13;;;5.31;58.42
70011;BME280;59543;37.950;-122.338;2023-02-22T11:25:07;100538.47;;;5.32;57.70
70011;BME280;59543;37.950;-122.338;2023-02-22T11:27:37;100538.25;;;5.35;58.31
70011;BME280;59543;37.950;-122.338;2023-02-22T11:32:33;100541.25;;;5.08;59.98
70011;BME280;59543;37.950;-122.338;2023-02-22T11:38:18;100552.06;;;5.18;59.49
70011;BME280;59543;37.950;-122.338;2023-02-22T11:40:45;100554.22;;;5.13;59.90
70011;BME280;59543;37.950;-122.338;2023-02-22T11:43:15;100544.53;;;5.12;60.44
70011;BME280;59543;37.950;-122.338;2023-02-22T11:45:58;100567.41;;;4.92;61.96
70011;BME280;59543;37.950;-122.338;2023-02-22T11:48:25;100553.97;;;5.04;61.02
70011;BME280;59543;37.950;-122.338;2023-02-22T11:50:55;100562.19;;;5.01;61.19
70011;BME280;59543;37.950;-122.338;2023-02-22T11:53:26;100568.66;;;5.10;61.79
70011;BME280;59543;37.950;-122.338;2023-02-22T12:01:15;100574.47;;;5.15;61.87
70011;BME280;59543;37.950;-122.338;2023-02-22T12:03:54;100583.44;;;5.14;60.99
70011;BME280;59543;37.950;-122.338;2023-02-22T12:06:47;100576.31;;;5.15;61.36
70011;BME280;59543;37.950;-122.338;2023-02-22T12:09:17;100574.84;;;5.22;61.00
70011;BME280;59543;37.950;-122.338;2023-02-22T12:14:33;100578.31;;;5.00;61.16
70011;BME280;59543;37.950;-122.338;2023-02-22T12:19:56;100581.38;;;5.07;59.79
70011;BME280;59543;37.950;-122.338;2023-02-22T12:22:27;100590.09;;;5.09;60.08
70011;BME280;59543;37.950;-122.338;2023-02-22T12:24:59;100590.72;;;5.12;60.12
70011;BME280;59543;37.950;-122.338;2023-02-22T12:27:34;100599.19;;;5.17;59.58
70011;BME280;59543;37.950;-122.338;2023-02-22T12:32:38;100587.91;;;5.14;60.14
70011;BME280;59543;37.950;-122.338;2023-02-22T12:37:49;100588.38;;;5.08;60.52
70011;BME280;59543;37.950;-122.338;2023-02-22T12:40:29;100573.41;;;5.18;60.58
70011;BME280;59543;37.950;-122.338;2023-02-22T12:43:13;100570.59;;;5.19;60.42
70011;BME280;59543;37.950;-122.338;2023-02-22T12:45:43;100567.19;;;5.17;59.96
70011;BME280;59543;37.950;-122.338;2023-02-22T12:50:39;100570.00;;;5.16;58.07
70011;BME280;59543;37.950;-122.338;2023-02-22T12:53:16;100583.66;;;5.11;59.71
70011;BME280;59543;37.950;-122.338;2023-02-22T12:55:49;100591.66;;;5.11;60.02
70011;BME280;59543;37.950;-122.338;2023-02-22T13:01:01;100596.00;;;5.01;60.58
70011;BME280;59543;37.950;-122.338;2023-02-22T13:03:38;100586.09;;;5.03;61.48
70011;BME280;59543;37.950;-122.338;2023-02-22T13:11:22;100590.44;;;5.04;61.90
70011;BME280;59543;37.950;-122.338;2023-02-22T13:14:03;100590.16;;;4.96;61.29
70011;BME280;59543;37.950;-122.338;2023-02-22T13:24:14;100608.56;;;5.34;59.07
70011;BME280;59543;37.950;-122.338;2023-02-22T13:39:25;100607.66;;;5.11;59.74
70011;BME280;59543;37.950;-122.338;2023-02-22T13:45:04;100620.03;;;5.12;60.01
70011;BME280;59543;37.950;-122.338;2023-02-22T13:52:19;100624.16;;;5.16;59.12
70011;BME280;59543;37.950;-122.338;2023-02-22T13:55:09;100614.47;;;5.15;59.49
70011;BME280;59543;37.950;-122.338;2023-02-22T14:05:35;100614.81;;;5.11;59.63
70011;BME280;59543;37.950;-122.338;2023-02-22T14:08:02;100615.81;;;5.21;59.76
70011;BME280;59543;37.950;-122.338;2023-02-22T14:10:49;100613.59;;;5.03;60.54
70011;BME280;59543;37.950;-122.338;2023-02-22T14:13:16;100614.41;;;4.93;60.31
70011;BME280;59543;37.950;-122.338;2023-02-22T14:18:30;100632.75;;;4.73;62.17
70011;BME280;59543;37.950;-122.338;2023-02-22T14:21:07;100630.38;;;4.93;60.76
70011;BME280;59543;37.950;-122.338;2023-02-22T14:26:09;100638.22;;;4.83;61.45
70011;BME280;59543;37.950;-122.338;2023-02-22T14:31:15;100631.22;;;4.82;61.51
70011;BME280;59543;37.950;-122.338;2023-02-22T14:41:32;100641.13;;;4.80;63.00
70011;BME280;59543;37.950;-122.338;2023-02-22T14:43:59;100643.78;;;4.80;62.42
70011;BME280;59543;37.950;-122.338;2023-02-22T14:46:28;100641.97;;;4.80;62.00
70011;BME280;59543;37.950;-122.338;2023-02-22T14:48:59;100641.25;;;4.78;61.44
70011;BME280;59543;37.950;-122.338;2023-02-22T14:51:28;100646.91;;;4.74;61.39
70011;BME280;59543;37.950;-122.338;2023-02-22T14:54:02;100656.56;;;4.64;61.66
70011;BME280;59543;37.950;-122.338;2023-02-22T14:56:38;100651.47;;;4.85;60.58
70011;BME280;59543;37.950;-122.338;2023-02-22T14:59:18;100652.53;;;4.82;60.78
70011;BME280;59543;37.950;-122.338;2023-02-22T15:01:45;100649.03;;;4.81;60.22